createdAt,value
2019-04-06T00:01:51.556Z,46.20
2019-04-06T00:04:18.566Z,41.97
2019-04-06T00:06:45.696Z,47.77
2019-04-06T00:09:12.937Z,47.10
2019-04-06T00:11:40.213Z,42.93
2019-04-06T00:14:07.142Z,57.70
2019-04-06T00:16:34.058Z,47.77
2019-04-06T00:19:01.152Z,43.93
2019-04-06T00:21:29.045Z,50.40
2019-04-06T00:23:56.049Z,43.40
2019-04-06T00:26:22.928Z,41.90
2019-04-06T00:28:49.952Z,45.60
2019-04-06T00:31:28.943Z,43.27
2019-04-06T00:33:55.832Z,42.23
2019-04-06T00:36:22.837Z,47.40
2019-04-06T00:38:49.700Z,43.47
2019-04-06T00:41:16.686Z,43.80
2019-04-06T00:43:43.811Z,43.57
2019-04-06T00:46:10.693Z,43.90
2019-04-06T00:48:37.569Z,42.73
2019-04-06T00:51:04.549Z,42.53
2019-04-06T00:53:31.459Z,45.93
2019-04-06T00:55:58.326Z,47.10
2019-04-06T00:58:25.236Z,40.60
2019-04-06T01:00:53.135Z,44.33
2019-04-06T01:03:20.307Z,46.23
2019-04-06T01:05:47.284Z,43.57
2019-04-06T01:08:14.541Z,43.47
2019-04-06T01:10:41.597Z,44.43
2019-04-06T01:13:08.522Z,39.73
2019-04-06T01:15:35.447Z,43.20
2019-04-06T01:18:02.419Z,43.00
2019-04-06T01:20:29.443Z,41.90
2019-04-06T01:22:56.478Z,45.67
2019-04-06T01:25:23.973Z,41.27
2019-04-06T01:27:51.006Z,46.00
2019-04-06T01:30:18.085Z,45.13
2019-04-06T01:32:45.029Z,45.23
2019-04-06T01:35:11.961Z,43.80
2019-04-06T01:37:39.073Z,41.30
2019-04-06T01:40:06.226Z,40.83
2019-04-06T01:42:33.190Z,37.47
2019-04-06T01:45:00.083Z,42.00
2019-04-06T01:47:27.003Z,36.37
2019-04-06T01:49:53.960Z,40.87
2019-04-06T01:52:21.057Z,43.40
2019-04-06T01:54:48.103Z,43.20
2019-04-06T01:57:14.973Z,44.87
2019-04-06T01:59:41.869Z,41.90
2019-04-06T02:02:14.040Z,39.10
2019-04-06T02:04:40.921Z,41.07
2019-04-06T02:07:08.021Z,41.67
2019-04-06T02:09:34.929Z,42.90
2019-04-06T02:12:02.071Z,43.27
2019-04-06T02:14:29.066Z,41.37
2019-04-06T02:16:56.084Z,42.63
2019-04-06T02:19:23.283Z,41.83
2019-04-06T02:21:50.342Z,43.13
2019-04-06T02:24:17.275Z,40.87
2019-04-06T02:26:44.168Z,40.77
2019-04-06T02:29:11.080Z,38.03
2019-04-06T02:31:55.829Z,39.37
2019-04-06T02:34:40.998Z,36.87
2019-04-06T02:37:26.481Z,38.50
2019-04-06T02:40:07.455Z,45.00
2019-04-06T02:42:55.371Z,38.77
2019-04-06T02:45:22.530Z,43.23
2019-04-06T02:47:49.458Z,41.30
2019-04-06T02:50:16.600Z,41.80
2019-04-06T02:52:43.535Z,40.07
2019-04-06T02:55:10.649Z,40.63
2019-04-06T02:57:37.743Z,40.23
2019-04-06T03:00:04.906Z,40.67
2019-04-06T03:02:32.097Z,38.33
2019-04-06T03:04:59.063Z,41.07
2019-04-06T03:07:26.149Z,42.83
2019-04-06T03:09:53.378Z,37.00
2019-04-06T03:12:20.274Z,40.13
2019-04-06T03:14:47.663Z,39.97
2019-04-06T03:17:15.104Z,37.97
2019-04-06T03:19:42.007Z,41.57
2019-04-06T03:22:09.007Z,41.03
2019-04-06T03:24:35.919Z,43.03
2019-04-06T03:27:03.306Z,42.60
2019-04-06T03:29:31.127Z,40.07
2019-04-06T03:31:58.241Z,43.67
2019-04-06T03:34:25.456Z,43.47
2019-04-06T03:36:52.580Z,40.40
2019-04-06T03:39:19.497Z,39.43
2019-04-06T03:41:46.416Z,37.90
2019-04-06T03:44:13.396Z,48.27
2019-04-06T03:46:40.546Z,42.53
2019-04-06T03:49:07.505Z,41.57
2019-04-06T03:51:34.486Z,41.13
2019-04-06T03:54:01.410Z,37.03
2019-04-06T03:56:28.595Z,45.73
2019-04-06T03:58:55.698Z,39.70
2019-04-06T04:01:22.617Z,46.90
2019-04-06T04:03:49.518Z,43.20
2019-04-06T04:06:16.498Z,42.80
2019-04-06T04:08:43.436Z,42.77
2019-04-06T04:11:10.588Z,36.23
2019-04-06T04:13:37.712Z,38.43
2019-04-06T04:16:04.622Z,39.30
2019-04-06T04:18:31.790Z,40.50
2019-04-06T04:20:58.676Z,43.43
2019-04-06T04:23:25.574Z,40.40
2019-04-06T04:25:52.500Z,38.70
2019-04-06T04:28:19.527Z,37.77
2019-04-06T04:30:46.533Z,40.17
2019-04-06T04:33:13.573Z,40.50
2019-04-06T04:35:40.443Z,34.57
2019-04-06T04:38:07.399Z,38.27
2019-04-06T04:40:34.532Z,39.87
2019-04-06T04:43:01.497Z,39.87
2019-04-06T04:45:29.152Z,39.43
2019-04-06T04:47:56.296Z,40.80
2019-04-06T04:50:23.371Z,40.37
2019-04-06T04:52:50.396Z,38.93
2019-04-06T04:55:17.509Z,39.87
2019-04-06T04:57:45.591Z,40.07
2019-04-06T05:00:13.207Z,37.80
2019-04-06T05:02:40.281Z,39.23
2019-04-06T05:05:09.372Z,41.23
2019-04-06T05:07:36.704Z,37.43
2019-04-06T05:10:04.173Z,38.60
2019-04-06T05:12:31.491Z,37.60
2019-04-06T05:15:01.353Z,38.07
2019-04-06T05:17:28.697Z,41.57
2019-04-06T05:19:55.917Z,39.13
2019-04-06T05:22:23.028Z,38.87
2019-04-06T05:24:50.088Z,39.87
2019-04-06T05:27:17.156Z,40.43
2019-04-06T05:29:44.336Z,36.37
2019-04-06T05:32:11.506Z,38.17
2019-04-06T05:34:38.551Z,35.90
2019-04-06T05:37:05.613Z,38.20
2019-04-06T05:39:33.660Z,36.53
2019-04-06T05:42:00.926Z,40.30
2019-04-06T05:44:27.973Z,37.10
2019-04-06T05:46:54.850Z,39.30
2019-04-06T05:49:21.940Z,35.90
2019-04-06T05:51:48.804Z,41.83
2019-04-06T05:54:15.940Z,38.47
2019-04-06T05:56:43.119Z,38.30
2019-04-06T05:59:10.893Z,35.13
2019-04-06T06:01:40.349Z,33.03
2019-04-06T06:04:08.811Z,39.60
2019-04-06T06:06:36.490Z,34.30
2019-04-06T06:09:05.527Z,36.47
2019-04-06T06:11:32.390Z,35.60
2019-04-06T06:13:59.253Z,34.30
2019-04-06T06:16:26.214Z,36.60
2019-04-06T06:18:53.360Z,39.97
2019-04-06T06:21:20.378Z,35.00
2019-04-06T06:23:47.645Z,40.03
2019-04-06T06:26:16.230Z,32.43
2019-04-06T06:28:43.295Z,33.23
2019-04-06T06:31:10.209Z,34.87
2019-04-06T06:33:37.265Z,36.83
2019-04-06T06:36:04.407Z,35.13
2019-04-06T06:38:31.286Z,33.43
2019-04-06T06:40:58.401Z,34.77
2019-04-06T06:43:25.307Z,36.27
2019-04-06T06:45:53.511Z,30.03
2019-04-06T06:48:20.511Z,33.80
2019-04-06T06:50:47.408Z,33.33
2019-04-06T06:53:14.499Z,33.53
2019-04-06T06:55:41.411Z,34.10
2019-04-06T06:58:09.041Z,32.17
2019-04-06T07:00:36.057Z,29.80
2019-04-06T07:03:03.255Z,34.13
2019-04-06T07:05:30.217Z,35.47
2019-04-06T07:07:57.334Z,32.97
2019-04-06T07:10:24.317Z,32.87
2019-04-06T07:12:51.293Z,32.80
2019-04-06T07:15:18.277Z,33.87
2019-04-06T07:17:45.431Z,33.03
2019-04-06T07:20:12.910Z,28.73
2019-04-06T07:22:40.081Z,32.60
2019-04-06T07:25:07.369Z,31.60
2019-04-06T07:27:34.381Z,31.03
2019-04-06T07:30:01.518Z,30.80
2019-04-06T07:32:28.449Z,29.17
2019-04-06T07:34:55.487Z,32.77
2019-04-06T07:37:22.563Z,31.47
2019-04-06T07:39:49.695Z,30.23
2019-04-06T07:42:16.570Z,29.97
2019-04-06T07:44:43.536Z,32.43
2019-04-06T07:47:10.598Z,29.07
2019-04-06T07:49:37.501Z,28.83
2019-04-06T07:52:04.661Z,30.07
2019-04-06T07:54:31.703Z,30.47
2019-04-06T07:56:58.756Z,27.97
2019-04-06T07:59:25.982Z,29.20
2019-04-06T08:01:53.107Z,31.17
2019-04-06T08:04:20.027Z,29.37
2019-04-06T08:06:47.116Z,27.67
2019-04-06T08:09:14.068Z,30.83
2019-04-06T08:11:40.939Z,29.10
2019-04-06T08:14:07.893Z,34.17
2019-04-06T08:16:34.807Z,30.80
2019-04-06T08:19:01.965Z,27.60
2019-04-06T08:21:29.020Z,28.40
2019-04-06T08:23:55.949Z,26.90
2019-04-06T08:26:22.895Z,32.13
2019-04-06T08:28:59.467Z,34.43
2019-04-06T08:31:19.128Z,25.77
2019-04-06T08:33:46.324Z,29.60
2019-04-06T08:36:13.262Z,31.93
2019-04-06T08:38:40.505Z,28.50
2019-04-06T08:41:07.776Z,28.43
2019-04-06T08:43:34.676Z,27.87
2019-04-06T08:46:01.684Z,28.70
2019-04-06T08:48:28.629Z,28.80
2019-04-06T08:50:55.682Z,24.33
2019-04-06T08:53:22.888Z,27.50
2019-04-06T08:55:49.918Z,30.53
2019-04-06T08:58:17.129Z,27.23
2019-04-06T09:00:44.111Z,28.37
2019-04-06T09:03:11.103Z,28.87
2019-04-06T09:05:38.081Z,25.27
2019-04-06T09:08:05.000Z,24.20
2019-04-06T09:10:31.884Z,26.07
2019-04-06T09:12:58.769Z,25.70
2019-04-06T09:15:25.649Z,27.50
2019-04-06T09:17:52.593Z,28.40
2019-04-06T09:20:19.487Z,27.37
2019-04-06T09:22:46.548Z,24.57
2019-04-06T09:25:13.647Z,28.50
2019-04-06T09:27:40.611Z,26.17
2019-04-06T09:30:08.101Z,28.63
2019-04-06T09:32:35.060Z,25.67
2019-04-06T09:35:02.175Z,24.50
2019-04-06T09:37:29.139Z,25.93
2019-04-06T09:39:56.053Z,26.77
2019-04-06T09:42:23.043Z,25.40
2019-04-06T09:45:15.437Z,26.87
2019-04-06T09:48:02.243Z,27.37
2019-04-06T09:50:53.058Z,24.93
2019-04-06T09:54:05.745Z,25.67
2019-04-06T09:56:47.297Z,25.53
2019-04-06T09:59:36.236Z,23.27
2019-04-06T10:02:17.656Z,26.83
2019-04-06T10:05:02.589Z,27.67
2019-04-06T10:07:37.048Z,26.77
2019-04-06T10:10:27.239Z,25.80
2019-04-06T10:13:22.614Z,25.50
2019-04-06T10:16:10.789Z,26.80
2019-04-06T10:19:12.020Z,29.93
2019-04-06T10:22:06.147Z,27.50
2019-04-06T10:24:53.243Z,26.03
2019-04-06T10:27:38.552Z,26.90
2019-04-06T10:30:16.507Z,27.53
2019-04-06T10:32:53.000Z,28.03
2019-04-06T10:35:39.799Z,29.57
2019-04-06T10:38:26.402Z,29.83
2019-04-06T10:41:06.034Z,27.83
2019-04-06T10:43:39.918Z,29.27
2019-04-06T10:46:17.675Z,26.80
2019-04-06T10:49:09.012Z,28.50
2019-04-06T10:51:52.855Z,28.53
2019-04-06T10:54:51.102Z,28.20
2019-04-06T10:57:42.905Z,26.83
2019-04-06T11:00:27.964Z,29.13
2019-04-06T11:03:17.469Z,28.27
2019-04-06T11:06:04.263Z,28.83
2019-04-06T11:08:51.174Z,29.67
2019-04-06T11:11:46.738Z,28.63
2019-04-06T11:14:45.045Z,29.70
2019-04-06T11:17:31.690Z,28.80
2019-04-06T11:20:15.964Z,28.97
2019-04-06T11:23:06.262Z,25.37
2019-04-06T11:25:52.828Z,27.73
2019-04-06T11:28:39.452Z,25.47
2019-04-06T11:31:26.337Z,28.77
2019-04-06T11:34:11.762Z,31.13
2019-04-06T11:36:53.518Z,28.40
2019-04-06T11:39:43.318Z,29.37
2019-04-06T11:42:31.762Z,27.10
2019-04-06T11:45:05.845Z,29.37
2019-04-06T11:47:42.639Z,29.63
2019-04-06T11:50:27.969Z,31.57
2019-04-06T11:53:07.607Z,26.77
2019-04-06T11:55:44.941Z,29.93
2019-04-06T11:58:21.399Z,34.03
2019-04-06T12:01:06.286Z,27.47
2019-04-06T12:03:55.782Z,28.23
2019-04-06T12:06:40.535Z,31.73
2019-04-06T12:09:21.754Z,32.50
2019-04-06T12:12:14.438Z,29.73
2019-04-06T12:14:50.765Z,28.87
2019-04-06T12:17:43.050Z,31.63
2019-04-06T12:20:19.646Z,30.37
2019-04-06T12:22:55.509Z,30.63
2019-04-06T12:25:38.109Z,31.67
2019-04-06T12:28:36.363Z,29.17
2019-04-06T12:31:41.137Z,31.27
2019-04-06T12:34:18.074Z,30.63
2019-04-06T12:36:51.432Z,31.87
2019-04-06T12:39:28.357Z,28.03
2019-04-06T12:42:25.242Z,30.27
2019-04-06T12:45:07.249Z,29.30
2019-04-06T12:47:48.298Z,29.63
2019-04-06T12:50:46.116Z,31.57
2019-04-06T12:53:38.518Z,30.53
2019-04-06T12:56:37.106Z,34.93
2019-04-06T12:59:13.153Z,31.03
2019-04-06T13:01:52.422Z,35.17
2019-04-06T13:04:44.594Z,32.87
2019-04-06T13:07:24.838Z,32.47
2019-04-06T13:10:02.829Z,32.87
2019-04-06T13:12:53.317Z,29.33
2019-04-06T13:15:42.996Z,29.90
2019-04-06T13:18:32.358Z,33.80
2019-04-06T13:21:34.248Z,31.70
2019-04-06T13:24:09.034Z,34.93
2019-04-06T13:26:43.023Z,30.87
2019-04-06T13:29:18.117Z,29.17
2019-04-06T13:32:06.223Z,29.83
2019-04-06T13:34:56.081Z,30.97
2019-04-06T13:37:31.621Z,30.63
2019-04-06T13:40:27.342Z,30.97
2019-04-06T13:43:05.506Z,29.90
2019-04-06T13:45:44.101Z,29.13
2019-04-06T13:48:22.206Z,27.73
2019-04-06T13:51:11.465Z,28.87
2019-04-06T13:53:52.169Z,30.33
2019-04-06T13:56:37.334Z,28.37
2019-04-06T13:59:29.703Z,29.50
2019-04-06T14:02:19.389Z,31.43
2019-04-06T14:05:13.067Z,32.07
2019-04-06T14:07:53.016Z,29.27
2019-04-06T14:10:27.621Z,39.43
2019-04-06T14:13:16.927Z,32.77
2019-04-06T14:16:03.635Z,29.90
2019-04-06T14:18:46.507Z,28.00
2019-04-06T14:21:51.087Z,34.40
2019-04-06T14:24:44.212Z,31.03
2019-04-06T14:27:27.969Z,34.47
2019-04-06T14:30:02.746Z,32.97
2019-04-06T14:32:45.818Z,31.70
2019-04-06T14:35:23.849Z,30.73
2019-04-06T14:38:09.007Z,28.53
2019-04-06T14:40:43.540Z,24.77
2019-04-06T14:43:29.390Z,26.03
2019-04-06T14:46:05.357Z,24.93
2019-04-06T14:48:51.100Z,25.83
2019-04-06T14:51:33.791Z,27.87
2019-04-06T14:54:07.969Z,26.93
2019-04-06T14:56:52.341Z,23.53
2019-04-06T14:59:32.605Z,35.33
2019-04-06T15:02:15.063Z,34.07
2019-04-06T15:05:02.256Z,26.77
2019-04-06T15:07:38.637Z,28.30
2019-04-06T15:10:20.627Z,24.67
2019-04-06T15:13:25.441Z,21.83
2019-04-06T15:16:14.685Z,28.70
2019-04-06T15:19:06.877Z,25.00
2019-04-06T15:21:47.265Z,24.97
2019-04-06T15:24:32.807Z,25.73
2019-04-06T15:27:31.818Z,23.73
2019-04-06T15:30:16.844Z,26.23
2019-04-06T15:33:04.152Z,20.07
2019-04-06T15:35:49.475Z,16.97
2019-04-06T15:38:28.140Z,17.03
2019-04-06T15:41:01.513Z,16.83
2019-04-06T15:43:56.943Z,17.37
2019-04-06T15:46:42.604Z,15.60
2019-04-06T15:49:29.754Z,17.13
2019-04-06T15:52:25.330Z,17.17
2019-04-06T15:55:17.148Z,20.17
2019-04-06T15:57:51.973Z,16.20
2019-04-06T16:00:25.189Z,20.07
2019-04-06T16:03:10.890Z,15.63
2019-04-06T16:05:58.242Z,15.63
2019-04-06T16:08:34.708Z,14.33
2019-04-06T16:11:27.830Z,17.30
2019-04-06T16:14:20.602Z,16.83
2019-04-06T16:16:56.596Z,20.67
2019-04-06T16:19:31.445Z,15.67
2019-04-06T16:22:16.548Z,15.03
2019-04-06T16:24:50.206Z,16.17
2019-04-06T16:27:35.589Z,15.30
2019-04-06T16:30:22.795Z,15.53
2019-04-06T16:33:12.732Z,15.67
2019-04-06T16:36:17.489Z,14.50
2019-04-06T16:39:12.963Z,14.93
2019-04-06T16:41:53.193Z,16.13
2019-04-06T16:44:47.690Z,14.87
2019-04-06T16:47:19.870Z,16.03
2019-04-06T16:49:54.178Z,16.67
2019-04-06T16:52:39.372Z,16.10
2019-04-06T16:55:22.438Z,15.60
2019-04-06T16:58:07.575Z,15.80
2019-04-06T17:00:44.981Z,16.47
2019-04-06T17:03:43.514Z,14.90
2019-04-06T17:06:27.013Z,17.83
2019-04-06T17:09:19.677Z,17.07
2019-04-06T17:12:07.253Z,16.17
2019-04-06T17:14:48.052Z,15.33
2019-04-06T17:17:33.664Z,15.10
2019-04-06T17:20:30.773Z,15.17
2019-04-06T17:23:35.649Z,15.90
2019-04-06T17:26:25.981Z,16.97
2019-04-06T17:29:02.591Z,16.93
2019-04-06T17:31:48.029Z,20.87
2019-04-06T17:34:29.526Z,16.17
2019-04-06T17:37:05.248Z,17.07
2019-04-06T17:39:46.597Z,18.77
2019-04-06T17:42:33.997Z,20.73
2019-04-06T17:45:27.690Z,20.87
2019-04-06T17:48:03.971Z,18.27
2019-04-06T17:50:51.035Z,20.90
2019-04-06T17:53:37.333Z,20.87
2019-04-06T17:56:14.037Z,23.73
2019-04-06T17:58:58.962Z,26.73
2019-04-06T18:01:57.894Z,25.03
2019-04-06T18:04:35.415Z,27.37
2019-04-06T18:07:30.110Z,30.20
2019-04-06T18:10:04.910Z,32.57
2019-04-06T18:13:06.757Z,32.43
2019-04-06T18:15:33.728Z,37.10
2019-04-06T18:18:00.765Z,34.50
2019-04-06T18:20:27.723Z,39.93
2019-04-06T18:22:54.777Z,37.93
2019-04-06T18:25:22.016Z,37.33
2019-04-06T18:27:49.317Z,39.47
2019-04-06T18:30:17.819Z,39.50
2019-04-06T18:33:01.419Z,38.57
2019-04-06T18:35:26.189Z,40.93
2019-04-06T18:38:01.387Z,41.13
2019-04-06T18:40:29.056Z,41.87
2019-04-06T18:42:56.284Z,45.70
2019-04-06T18:45:23.396Z,39.60
2019-04-06T18:47:50.700Z,38.80
2019-04-06T18:50:18.431Z,39.87
2019-04-06T18:52:45.408Z,43.23
2019-04-06T18:55:12.871Z,39.73
2019-04-06T18:57:40.281Z,40.97
2019-04-06T19:00:11.548Z,41.90
2019-04-06T19:02:38.184Z,45.93
2019-04-06T19:05:06.396Z,41.87
2019-04-06T19:07:33.850Z,44.03
2019-04-06T19:10:01.588Z,42.13
2019-04-06T19:12:28.856Z,43.93
2019-04-06T19:14:55.859Z,42.37
2019-04-06T19:17:22.853Z,44.23
2019-04-06T19:19:49.996Z,41.03
2019-04-06T19:22:17.287Z,41.37
2019-04-06T19:24:44.555Z,44.50
2019-04-06T19:27:12.534Z,43.07
2019-04-06T19:29:39.554Z,50.30
2019-04-06T19:32:06.635Z,43.03
2019-04-06T19:34:33.510Z,51.03
2019-04-06T19:37:00.388Z,46.20
2019-04-06T19:39:27.374Z,49.57
2019-04-06T19:41:54.269Z,46.03
2019-04-06T19:44:21.633Z,44.37
2019-04-06T19:46:48.962Z,45.77
2019-04-06T19:49:15.886Z,48.27
2019-04-06T19:51:43.019Z,49.23
2019-04-06T19:54:10.224Z,57.80
2019-04-06T19:56:37.626Z,47.80
2019-04-06T19:59:05.027Z,52.80
2019-04-06T20:01:32.091Z,50.97
2019-04-06T20:03:59.143Z,55.90
2019-04-06T20:06:26.388Z,51.63
2019-04-06T20:08:53.275Z,51.70
2019-04-06T20:11:20.773Z,51.67
2019-04-06T20:13:48.337Z,50.50
2019-04-06T20:16:15.319Z,54.83
2019-04-06T20:18:42.321Z,53.57
2019-04-06T20:21:09.780Z,53.43
2019-04-06T20:23:36.856Z,55.70
2019-04-06T20:26:04.652Z,51.47
2019-04-06T20:28:32.072Z,49.37
2019-04-06T20:31:00.122Z,50.37
2019-04-06T20:33:26.990Z,54.13
2019-04-06T20:35:54.487Z,55.03
2019-04-06T20:38:21.878Z,55.57
2019-04-06T20:40:49.372Z,53.37
2019-04-06T20:43:16.403Z,57.07
2019-04-06T20:45:43.754Z,52.00
2019-04-06T20:48:10.690Z,53.37
2019-04-06T20:50:37.576Z,59.27
2019-04-06T20:53:04.624Z,59.03
2019-04-06T20:55:31.543Z,55.67
2019-04-06T20:57:58.476Z,53.27
2019-04-06T21:00:26.729Z,55.33
2019-04-06T21:02:53.753Z,52.77
2019-04-06T21:05:20.966Z,53.47
2019-04-06T21:07:48.484Z,50.17
2019-04-06T21:10:15.575Z,56.20
2019-04-06T21:12:43.246Z,53.53
2019-04-06T21:15:18.313Z,52.00
2019-04-06T21:17:39.842Z,51.93
2019-04-06T21:20:07.402Z,55.93
2019-04-06T21:22:34.459Z,53.20
2019-04-06T21:25:01.321Z,54.43
2019-04-06T21:27:28.763Z,52.13
2019-04-06T21:29:56.117Z,54.40
2019-04-06T21:32:23.171Z,52.83
2019-04-06T21:34:50.440Z,52.17
2019-04-06T21:37:17.850Z,54.47
2019-04-06T21:39:46.764Z,55.47
2019-04-06T21:42:14.445Z,55.30
2019-04-06T21:44:41.615Z,58.37
2019-04-06T21:47:08.588Z,57.07
2019-04-06T21:49:35.734Z,56.47
2019-04-06T21:52:03.129Z,59.70
2019-04-06T21:54:30.748Z,59.70
2019-04-06T21:56:58.237Z,58.03
2019-04-06T21:59:25.743Z,60.80
2019-04-06T22:01:53.362Z,57.83
2019-04-06T22:04:25.829Z,55.57
2019-04-06T22:06:49.158Z,56.27
2019-04-06T22:09:16.469Z,56.30
2019-04-06T22:11:44.580Z,54.77
2019-04-06T22:14:11.577Z,58.93
2019-04-06T22:16:39.111Z,52.40
2019-04-06T22:19:06.637Z,57.13
2019-04-06T22:21:33.712Z,54.83
2019-04-06T22:24:01.245Z,57.30
2019-04-06T22:26:28.425Z,61.30
2019-04-06T22:28:56.019Z,54.70
2019-04-06T22:31:23.085Z,63.57
2019-04-06T22:33:50.173Z,57.13
2019-04-06T22:36:17.717Z,60.00
2019-04-06T22:38:44.680Z,55.60
2019-04-06T22:41:11.795Z,53.40
2019-04-06T22:43:38.968Z,60.27
2019-04-06T22:46:05.994Z,59.13
2019-04-06T22:48:33.524Z,59.97
2019-04-06T22:51:00.533Z,59.40
2019-04-06T22:53:28.210Z,55.97
2019-04-06T22:55:55.190Z,59.83
2019-04-06T22:58:22.614Z,62.03
2019-04-06T23:01:00.498Z,60.87
2019-04-06T23:03:50.462Z,59.50
2019-04-06T23:06:24.404Z,58.50
2019-04-06T23:08:51.591Z,59.97
2019-04-06T23:11:18.673Z,58.53
2019-04-06T23:13:46.042Z,62.27
2019-04-06T23:16:12.946Z,58.77
2019-04-06T23:18:40.033Z,62.20
2019-04-06T23:21:07.621Z,65.40
2019-04-06T23:23:35.946Z,56.70
2019-04-06T23:26:03.145Z,63.20
2019-04-06T23:28:30.564Z,56.63
2019-04-06T23:30:58.568Z,55.90
2019-04-06T23:33:25.636Z,60.40
2019-04-06T23:35:52.986Z,59.27
2019-04-06T23:38:20.166Z,61.27
2019-04-06T23:40:47.353Z,59.70
2019-04-06T23:43:14.927Z,57.70
2019-04-06T23:45:42.789Z,55.63
2019-04-06T23:48:09.912Z,60.83
2019-04-06T23:50:36.801Z,59.23
2019-04-06T23:53:04.741Z,54.10
2019-04-06T23:55:31.961Z,60.27
2019-04-06T23:57:59.177Z,60.30
